createdAt,value
2022-12-23T00:00:26.938Z,1.80
2022-12-23T00:02:53.517Z,1.75
2022-12-23T00:05:19.948Z,1.83
2022-12-23T00:07:46.337Z,1.90
2022-12-23T00:10:12.748Z,1.60
2022-12-23T00:12:57.946Z,1.70
2022-12-23T00:15:24.274Z,2.10
2022-12-23T00:17:50.671Z,1.75
2022-12-23T00:20:17.203Z,1.80
2022-12-23T00:23:02.133Z,1.70
2022-12-23T00:25:40.816Z,1.95
2022-12-23T00:28:11.641Z,2.47
2022-12-23T00:30:43.908Z,2.15
2022-12-23T00:33:10.259Z,2.15
2022-12-23T00:35:36.612Z,3.00
2022-12-23T00:38:02.923Z,2.40
2022-12-23T00:40:47.640Z,2.53
2022-12-23T00:43:14.020Z,2.75
2022-12-23T00:45:40.450Z,2.97
2022-12-23T00:48:25.315Z,2.63
2022-12-23T00:50:52.527Z,3.03
2022-12-23T00:53:19.470Z,2.70
2022-12-23T00:55:47.750Z,3.00
2022-12-23T00:58:14.918Z,2.90
2022-12-23T01:01:00.333Z,2.50
2022-12-23T01:03:45.318Z,2.75
2022-12-23T01:06:12.044Z,2.55
2022-12-23T01:08:38.634Z,2.58
2022-12-23T01:11:05.968Z,2.60
2022-12-23T01:13:32.972Z,2.90
2022-12-23T01:16:03.193Z,3.00
2022-12-23T01:18:29.566Z,2.72
2022-12-23T01:20:55.916Z,2.60
2022-12-23T01:23:22.254Z,2.60
2022-12-23T01:25:55.551Z,3.17
2022-12-23T01:28:21.941Z,2.60
2022-12-23T01:30:48.302Z,2.85
2022-12-23T01:33:14.636Z,2.90
2022-12-23T01:35:41.029Z,2.72
2022-12-23T01:38:07.452Z,2.92
2022-12-23T01:40:37.383Z,2.97
2022-12-23T01:43:03.741Z,3.42
2022-12-23T01:45:31.093Z,2.83
2022-12-23T01:47:58.958Z,2.67
2022-12-23T01:50:32.841Z,2.83
2022-12-23T01:53:08.711Z,2.90
2022-12-23T01:55:46.721Z,3.00
2022-12-23T01:58:24.992Z,2.80
2022-12-23T02:01:10.633Z,3.17
2022-12-23T02:03:43.359Z,2.67
2022-12-23T02:06:34.107Z,2.60
2022-12-23T02:09:18.868Z,2.83
2022-12-23T02:12:04.095Z,2.58
2022-12-23T02:15:07.681Z,2.60
2022-12-23T02:17:43.301Z,2.47
2022-12-23T02:20:21.422Z,2.40
2022-12-23T02:22:59.503Z,2.33
2022-12-23T02:25:42.090Z,2.28
2022-12-23T02:28:27.055Z,2.35
2022-12-23T02:31:00.703Z,2.08
2022-12-23T02:33:32.636Z,2.38
2022-12-23T02:36:10.408Z,2.33
2022-12-23T02:38:39.853Z,2.40
2022-12-23T02:41:15.395Z,2.28
2022-12-23T02:43:45.234Z,2.10
2022-12-23T02:46:12.126Z,1.98
2022-12-23T02:48:57.107Z,2.03
2022-12-23T02:51:26.981Z,2.10
2022-12-23T02:53:55.643Z,1.90
2022-12-23T02:56:23.329Z,1.60
2022-12-23T02:58:53.303Z,1.80
2022-12-23T03:01:20.654Z,1.90
2022-12-23T03:03:47.934Z,1.80
2022-12-23T03:06:17.574Z,1.90
2022-12-23T03:08:44.858Z,1.80
2022-12-23T03:11:15.129Z,1.88
2022-12-23T03:13:41.450Z,2.03
2022-12-23T03:16:28.380Z,1.95
2022-12-23T03:18:54.743Z,1.80
2022-12-23T03:21:23.963Z,1.83
2022-12-23T03:23:56.849Z,2.00
2022-12-23T03:26:26.361Z,1.70
2022-12-23T03:29:01.065Z,1.88
2022-12-23T03:31:29.867Z,2.10
2022-12-23T03:34:05.336Z,1.90
2022-12-23T03:36:38.182Z,1.77
2022-12-23T03:39:07.162Z,1.90
2022-12-23T03:41:36.723Z,1.88
2022-12-23T03:44:05.441Z,1.70
2022-12-23T03:46:34.743Z,1.90
2022-12-23T03:49:03.410Z,2.00
2022-12-23T03:51:52.583Z,1.70
2022-12-23T03:54:26.617Z,2.03
2022-12-23T03:57:01.515Z,1.70
2022-12-23T03:59:30.731Z,1.92
2022-12-23T04:01:57.162Z,1.90
2022-12-23T04:04:34.037Z,1.60
2022-12-23T04:07:03.543Z,1.58
2022-12-23T04:09:29.973Z,1.67
2022-12-23T04:11:57.973Z,1.90
2022-12-23T04:14:24.353Z,1.75
2022-12-23T04:16:53.301Z,1.60
2022-12-23T04:19:19.687Z,1.50
2022-12-23T04:21:46.092Z,1.52
2022-12-23T04:24:12.397Z,1.80
2022-12-23T04:26:38.745Z,1.60
2022-12-23T04:29:05.273Z,1.70
2022-12-23T04:31:31.891Z,1.80
2022-12-23T04:33:58.286Z,1.50
2022-12-23T04:36:24.659Z,1.77
2022-12-23T04:38:50.979Z,1.50
2022-12-23T04:41:17.300Z,1.60
2022-12-23T04:43:47.765Z,1.52
2022-12-23T04:46:17.400Z,1.60
2022-12-23T04:48:43.754Z,1.60
2022-12-23T04:51:10.094Z,1.60
2022-12-23T04:53:37.187Z,1.77
2022-12-23T04:56:04.241Z,1.50
2022-12-23T04:58:30.543Z,1.60
2022-12-23T05:01:04.717Z,1.60
2022-12-23T05:03:31.307Z,1.50
2022-12-23T05:05:57.799Z,1.50
2022-12-23T05:08:24.154Z,1.50
2022-12-23T05:10:50.509Z,1.80
2022-12-23T05:13:16.965Z,1.55
2022-12-23T05:15:44.005Z,1.70
2022-12-23T05:18:10.417Z,1.88
2022-12-23T05:20:36.791Z,1.50
2022-12-23T05:23:03.143Z,1.60
2022-12-23T05:25:29.552Z,1.50
2022-12-23T05:27:55.914Z,1.90
2022-12-23T05:30:22.283Z,1.70
2022-12-23T05:32:52.430Z,1.60
2022-12-23T05:35:18.768Z,1.75
2022-12-23T05:37:45.089Z,1.90
2022-12-23T05:40:11.598Z,1.70
2022-12-23T05:42:38.171Z,2.00
2022-12-23T05:45:04.800Z,2.70
2022-12-23T05:47:31.151Z,3.00
2022-12-23T05:49:57.511Z,3.20
2022-12-23T05:52:23.860Z,3.50
2022-12-23T05:54:50.335Z,3.13
2022-12-23T05:57:16.848Z,3.08
2022-12-23T05:59:43.202Z,2.75
2022-12-23T06:02:09.832Z,2.80
2022-12-23T06:04:36.310Z,2.83
2022-12-23T06:07:02.671Z,2.80
2022-12-23T06:09:29.006Z,3.15
2022-12-23T06:11:55.391Z,3.42
2022-12-23T06:14:28.362Z,3.30
2022-12-23T06:16:55.375Z,3.10
2022-12-23T06:19:21.818Z,2.92
2022-12-23T06:21:48.203Z,2.92
2022-12-23T06:24:14.506Z,2.95
2022-12-23T06:26:41.619Z,2.55
2022-12-23T06:29:08.068Z,2.38
2022-12-23T06:31:34.432Z,2.47
2022-12-23T06:34:00.799Z,2.40
2022-12-23T06:36:27.105Z,2.50
2022-12-23T06:38:53.463Z,2.28
2022-12-23T06:41:19.788Z,2.30
2022-12-23T06:43:49.805Z,1.88
2022-12-23T06:46:18.979Z,1.95
2022-12-23T06:48:45.382Z,1.90
2022-12-23T06:51:12.692Z,1.70
2022-12-23T06:53:39.118Z,2.00
2022-12-23T06:56:05.742Z,1.90
2022-12-23T06:58:32.084Z,1.67
2022-12-23T07:00:58.482Z,1.75
2022-12-23T07:03:25.051Z,1.85
2022-12-23T07:05:51.865Z,1.77
2022-12-23T07:08:18.627Z,2.08
2022-12-23T07:10:45.424Z,1.80
2022-12-23T07:13:12.128Z,1.70
2022-12-23T07:15:39.097Z,1.83
2022-12-23T07:18:05.675Z,1.70
2022-12-23T07:20:32.113Z,1.70
2022-12-23T07:22:58.555Z,1.75
2022-12-23T07:25:25.147Z,1.90
2022-12-23T07:27:57.888Z,1.70
2022-12-23T07:30:24.249Z,1.58
2022-12-23T07:32:51.026Z,1.50
2022-12-23T07:35:17.421Z,1.88
2022-12-23T07:37:43.812Z,1.60
2022-12-23T07:40:10.974Z,1.63
2022-12-23T07:42:46.491Z,1.80
2022-12-23T07:45:13.290Z,1.63
2022-12-23T07:47:39.679Z,2.20
2022-12-23T07:50:06.348Z,2.13
2022-12-23T07:52:32.677Z,2.22
2022-12-23T07:54:59.004Z,2.00
2022-12-23T07:57:25.378Z,2.10
2022-12-23T07:59:51.711Z,2.00
2022-12-23T08:02:18.264Z,1.73
2022-12-23T08:04:46.493Z,1.98
2022-12-23T08:07:13.066Z,2.22
2022-12-23T08:09:39.409Z,1.92
2022-12-23T08:12:05.878Z,1.80
2022-12-23T08:14:32.253Z,1.75
2022-12-23T08:16:58.669Z,1.75
2022-12-23T08:19:25.042Z,1.70
2022-12-23T08:21:51.459Z,1.92
2022-12-23T08:24:17.841Z,2.00
2022-12-23T08:26:44.170Z,1.90
2022-12-23T08:29:10.515Z,1.70
2022-12-23T08:31:36.924Z,1.80
2022-12-23T08:34:03.248Z,1.90
2022-12-23T08:36:32.834Z,1.65
2022-12-23T08:39:01.046Z,1.50
2022-12-23T08:41:28.868Z,1.63
2022-12-23T08:43:55.539Z,1.70
2022-12-23T08:46:22.326Z,1.52
2022-12-23T08:48:49.802Z,1.50
2022-12-23T08:51:17.723Z,1.67
2022-12-23T08:53:44.558Z,1.40
2022-12-23T08:56:18.580Z,1.42
2022-12-23T08:58:45.922Z,1.40
2022-12-23T09:01:13.238Z,1.58
2022-12-23T09:03:40.232Z,1.45
2022-12-23T09:06:07.513Z,1.50
2022-12-23T09:08:34.347Z,1.50
2022-12-23T09:11:01.162Z,1.67
2022-12-23T09:13:34.840Z,1.50
2022-12-23T09:16:02.268Z,1.60
2022-12-23T09:18:28.693Z,1.55
2022-12-23T09:21:02.631Z,1.52
2022-12-23T09:23:29.013Z,1.52
2022-12-23T09:25:55.606Z,1.67
2022-12-23T09:28:22.330Z,1.80
2022-12-23T09:30:48.720Z,1.60
2022-12-23T09:33:15.336Z,1.60
2022-12-23T09:35:41.733Z,1.60
2022-12-23T09:38:08.403Z,1.50
2022-12-23T09:40:35.836Z,1.80
2022-12-23T09:43:17.143Z,1.40
2022-12-23T09:45:48.424Z,1.60
2022-12-23T09:48:17.373Z,1.60
2022-12-23T09:50:44.110Z,1.63
2022-12-23T09:53:15.173Z,1.63
2022-12-23T09:55:47.615Z,1.60
2022-12-23T09:58:31.684Z,1.70
2022-12-23T10:01:15.083Z,1.75
2022-12-23T10:03:58.829Z,2.00
2022-12-23T10:06:30.370Z,1.63
2022-12-23T10:09:01.780Z,1.70
2022-12-23T10:11:30.647Z,1.60
2022-12-23T10:14:09.194Z,1.60
2022-12-23T10:16:38.468Z,1.80
2022-12-23T10:19:08.627Z,1.90
2022-12-23T10:21:34.978Z,2.05
2022-12-23T10:24:04.767Z,2.28
2022-12-23T10:26:32.282Z,2.30
2022-12-23T10:31:41.205Z,2.30
2022-12-23T10:34:13.479Z,2.47
2022-12-23T10:37:02.599Z,2.30
2022-12-23T10:39:35.299Z,2.33
2022-12-23T10:42:27.861Z,2.08
2022-12-23T10:45:07.509Z,2.15
2022-12-23T10:50:09.065Z,2.17
2022-12-23T10:52:37.702Z,1.80
2022-12-23T10:55:05.272Z,2.10
2022-12-23T10:57:31.883Z,2.08
2022-12-23T10:59:58.247Z,2.00
2022-12-23T11:02:27.554Z,2.00
2022-12-23T11:04:54.024Z,2.20
2022-12-23T11:10:15.551Z,1.80
2022-12-23T11:12:47.233Z,1.77
2022-12-23T11:15:33.824Z,1.92
2022-12-23T11:18:12.546Z,2.13
2022-12-23T11:20:40.644Z,1.75
2022-12-23T11:23:23.881Z,1.80
2022-12-23T11:25:59.483Z,2.00
2022-12-23T11:28:26.101Z,2.13
2022-12-23T11:30:57.440Z,2.15
2022-12-23T11:33:31.577Z,2.13
2022-12-23T11:36:02.405Z,2.08
2022-12-23T11:38:28.928Z,2.22
2022-12-23T11:40:55.375Z,2.67
2022-12-23T11:43:22.933Z,2.40
2022-12-23T11:46:09.251Z,2.10
2022-12-23T11:48:35.620Z,2.70
2022-12-23T11:51:03.420Z,3.10
2022-12-23T11:53:30.092Z,3.40
2022-12-23T11:55:56.398Z,3.65
2022-12-23T11:58:23.947Z,3.40
2022-12-23T12:00:55.993Z,3.40
2022-12-23T12:03:24.668Z,3.75
2022-12-23T12:05:53.092Z,3.42
2022-12-23T12:08:20.988Z,3.60
2022-12-23T12:10:50.909Z,3.50
2022-12-23T12:13:23.648Z,3.30
2022-12-23T12:16:08.564Z,3.47
2022-12-23T12:18:35.324Z,4.07
2022-12-23T12:21:05.453Z,3.58
2022-12-23T12:23:34.547Z,3.95
2022-12-23T12:26:11.228Z,3.58
2022-12-23T12:28:40.070Z,3.83
2022-12-23T12:31:14.675Z,3.58
2022-12-23T12:33:45.663Z,3.75
2022-12-23T12:36:20.860Z,3.58
2022-12-23T12:38:49.090Z,4.10
2022-12-23T12:41:21.258Z,4.20
2022-12-23T12:43:52.557Z,3.55
2022-12-23T12:46:28.111Z,3.60
2022-12-23T12:48:54.489Z,4.03
2022-12-23T12:51:23.747Z,3.53
2022-12-23T12:54:04.708Z,3.80
2022-12-23T12:56:46.331Z,3.65
2022-12-23T12:59:24.752Z,3.63
2022-12-23T13:02:03.095Z,3.65
2022-12-23T13:04:45.948Z,3.88
2022-12-23T13:07:32.586Z,3.58
2022-12-23T13:09:58.921Z,3.60
2022-12-23T13:12:34.209Z,3.72
2022-12-23T13:15:17.129Z,3.83
2022-12-23T13:18:06.209Z,3.63
2022-12-23T13:20:36.124Z,3.58
2022-12-23T13:23:42.725Z,3.65
2022-12-23T13:26:13.056Z,3.33
2022-12-23T13:29:02.462Z,3.90
2022-12-23T13:31:31.676Z,3.80
2022-12-23T13:34:02.930Z,3.70
2022-12-23T13:36:35.765Z,3.70
2022-12-23T13:39:06.959Z,3.90
2022-12-23T13:41:35.378Z,4.00
2022-12-23T13:44:05.146Z,4.15
2022-12-23T13:46:37.890Z,5.10
2022-12-23T13:49:18.728Z,4.90
2022-12-23T13:52:03.639Z,5.03
2022-12-23T13:54:29.941Z,5.10
2022-12-23T13:57:08.375Z,5.43
2022-12-23T13:59:41.286Z,5.50
2022-12-23T14:02:46.250Z,5.30
2022-12-23T14:05:31.159Z,5.25
2022-12-23T14:08:01.555Z,4.55
2022-12-23T14:10:28.384Z,4.28
2022-12-23T14:12:59.912Z,3.65
2022-12-23T14:15:45.269Z,3.65
2022-12-23T14:18:18.766Z,3.47
2022-12-23T14:21:03.497Z,4.00
2022-12-23T14:23:51.024Z,3.80
2022-12-23T14:26:20.473Z,4.05
2022-12-23T14:28:55.977Z,4.35
2022-12-23T14:31:28.430Z,4.70
2022-12-23T14:34:01.803Z,4.45
2022-12-23T14:36:28.617Z,4.47
2022-12-23T14:39:13.269Z,4.82
2022-12-23T14:41:47.984Z,4.18
2022-12-23T14:44:19.007Z,4.20
2022-12-23T14:46:45.349Z,4.47
2022-12-23T14:52:18.880Z,4.60
2022-12-23T14:55:00.326Z,3.92
2022-12-23T14:57:32.647Z,3.70
2022-12-23T15:00:02.559Z,3.70
2022-12-23T15:02:35.093Z,3.35
2022-12-23T15:05:01.839Z,3.28
2022-12-23T15:07:33.547Z,2.97
2022-12-23T15:10:01.827Z,3.10
2022-12-23T15:12:31.840Z,3.40
2022-12-23T15:15:06.367Z,3.38
2022-12-23T15:17:34.533Z,3.50
2022-12-23T15:20:12.439Z,3.45
2022-12-23T15:22:39.537Z,3.60
2022-12-23T15:25:18.320Z,3.47
2022-12-23T15:27:44.769Z,3.58
2022-12-23T15:30:12.702Z,3.58
2022-12-23T15:32:40.501Z,3.67
2022-12-23T15:35:07.273Z,3.15
2022-12-23T15:37:34.473Z,3.97
2022-12-23T15:40:11.466Z,3.17
2022-12-23T15:42:38.828Z,3.90
2022-12-23T15:45:26.158Z,3.58
2022-12-23T15:47:52.637Z,3.60
2022-12-23T15:50:19.123Z,3.88
2022-12-23T15:52:46.558Z,3.55
2022-12-23T15:57:49.810Z,3.38
2022-12-23T16:00:20.600Z,3.30
2022-12-23T16:03:05.576Z,3.85
2022-12-23T16:05:35.132Z,3.65
2022-12-23T16:08:24.800Z,3.65
2022-12-23T16:10:56.704Z,3.70
2022-12-23T16:13:23.323Z,3.47
2022-12-23T16:15:49.865Z,3.63
2022-12-23T16:18:19.168Z,3.67
2022-12-23T16:20:47.682Z,3.70
2022-12-23T16:23:15.687Z,3.70
2022-12-23T16:25:50.239Z,3.65
2022-12-23T16:28:26.879Z,3.60
2022-12-23T16:30:54.903Z,3.90
2022-12-23T16:33:21.226Z,3.83
2022-12-23T16:35:47.559Z,3.65
2022-12-23T16:38:18.657Z,3.38
2022-12-23T16:40:48.842Z,3.72
2022-12-23T16:43:15.478Z,3.80
2022-12-23T16:45:43.364Z,3.53
2022-12-23T16:48:30.036Z,3.45
2022-12-23T16:50:56.765Z,3.60
2022-12-23T16:53:23.116Z,3.60
2022-12-23T16:55:56.625Z,3.30
2022-12-23T16:58:24.894Z,3.38
2022-12-23T17:00:51.468Z,3.60
2022-12-23T17:03:19.043Z,4.10
2022-12-23T17:05:46.184Z,3.50
2022-12-23T17:08:12.819Z,3.72
2022-12-23T17:10:39.775Z,3.60
2022-12-23T17:13:06.262Z,3.47
2022-12-23T17:15:32.710Z,3.80
2022-12-23T17:17:59.062Z,4.05
2022-12-23T17:20:25.451Z,3.60
2022-12-23T17:22:53.479Z,3.40
2022-12-23T17:25:26.777Z,3.60
2022-12-23T17:27:55.367Z,3.70
2022-12-23T17:30:23.135Z,3.50
2022-12-23T17:32:56.939Z,3.55
2022-12-23T17:35:24.081Z,3.72
2022-12-23T17:37:50.568Z,3.30
2022-12-23T17:40:17.258Z,3.60
2022-12-23T17:42:44.051Z,3.22
2022-12-23T17:45:25.068Z,3.33
2022-12-23T17:47:51.497Z,3.50
2022-12-23T17:50:17.914Z,3.40
2022-12-23T17:52:44.427Z,3.15
2022-12-23T17:55:16.459Z,3.03
2022-12-23T17:57:42.815Z,3.10
2022-12-23T18:00:09.423Z,3.03
2022-12-23T18:02:38.357Z,3.17
2022-12-23T18:05:30.960Z,3.20
2022-12-23T18:07:58.463Z,3.00
2022-12-23T18:10:33.544Z,3.08
2022-12-23T18:13:01.573Z,3.20
2022-12-23T18:15:35.217Z,3.10
2022-12-23T18:20:27.976Z,2.80
2022-12-23T18:22:54.499Z,2.70
2022-12-23T18:25:22.974Z,3.03
2022-12-23T18:27:49.612Z,3.03
2022-12-23T18:30:16.153Z,2.78
2022-12-23T18:32:42.744Z,2.63
2022-12-23T18:35:27.655Z,2.90
2022-12-23T18:37:54.198Z,2.63
2022-12-23T18:40:20.697Z,2.60
2022-12-23T18:42:47.055Z,3.17
2022-12-23T18:45:23.569Z,2.25
2022-12-23T18:47:50.149Z,2.67
2022-12-23T18:50:16.535Z,2.90
2022-12-23T18:52:42.886Z,2.65
2022-12-23T18:55:09.547Z,2.58
2022-12-23T18:57:35.875Z,2.65
2022-12-23T19:00:03.627Z,2.72
2022-12-23T19:02:30.033Z,2.95
2022-12-23T19:04:56.354Z,2.80
2022-12-23T19:07:22.716Z,2.67
2022-12-23T19:09:49.234Z,2.67
2022-12-23T19:12:15.717Z,2.58
2022-12-23T19:14:42.076Z,3.42
2022-12-23T19:17:08.439Z,2.80
2022-12-23T19:19:35.383Z,2.67
2022-12-23T19:22:01.751Z,2.50
2022-12-23T19:24:28.208Z,2.90
2022-12-23T19:26:54.571Z,2.90
2022-12-23T19:29:20.891Z,2.85
2022-12-23T19:31:47.235Z,2.55
2022-12-23T19:34:15.666Z,2.90
2022-12-23T19:36:42.585Z,2.70
2022-12-23T19:39:15.812Z,2.90
2022-12-23T19:41:42.370Z,2.85
2022-12-23T19:44:08.712Z,2.78
2022-12-23T19:46:35.187Z,2.70
2022-12-23T19:49:01.629Z,2.80
2022-12-23T19:51:28.022Z,2.58
2022-12-23T19:53:54.409Z,2.63
2022-12-23T19:56:21.235Z,2.90
2022-12-23T19:58:48.236Z,2.88
2022-12-23T20:01:16.129Z,2.90
2022-12-23T20:03:43.498Z,3.10
2022-12-23T20:06:17.611Z,2.67
2022-12-23T20:08:44.099Z,2.90
2022-12-23T20:11:14.435Z,2.90
2022-12-23T20:13:41.059Z,2.90
2022-12-23T20:16:07.706Z,3.08
2022-12-23T20:18:34.176Z,2.65
2022-12-23T20:21:01.138Z,2.85
2022-12-23T20:23:28.562Z,3.13
2022-12-23T20:25:55.055Z,2.90
2022-12-23T20:28:21.611Z,3.00
2022-12-23T20:30:48.359Z,3.00
2022-12-23T20:33:15.587Z,2.90
2022-12-23T20:35:42.037Z,3.20
2022-12-23T20:38:08.481Z,2.80
2022-12-23T20:40:34.818Z,2.75
2022-12-23T20:43:01.333Z,3.00
2022-12-23T20:45:27.745Z,3.00
2022-12-23T20:47:54.187Z,2.80
2022-12-23T20:50:21.104Z,2.78
2022-12-23T20:52:47.440Z,2.83
2022-12-23T20:55:13.811Z,2.90
2022-12-23T20:57:40.474Z,2.80
2022-12-23T21:00:07.289Z,2.70
2022-12-23T21:02:33.750Z,2.60
2022-12-23T21:05:00.178Z,2.38
2022-12-23T21:07:26.697Z,2.95
2022-12-23T21:09:53.061Z,3.03
2022-12-23T21:12:19.431Z,2.40
2022-12-23T21:14:45.824Z,2.33
2022-12-23T21:17:12.184Z,2.30
2022-12-23T21:19:38.514Z,2.75
2022-12-23T21:22:04.865Z,2.67
2022-12-23T21:24:31.180Z,2.60
2022-12-23T21:26:57.547Z,2.50
2022-12-23T21:29:24.280Z,2.60
2022-12-23T21:31:50.709Z,2.47
2022-12-23T21:34:17.943Z,2.60
2022-12-23T21:36:44.338Z,2.10
2022-12-23T21:39:13.369Z,2.80
2022-12-23T21:41:43.451Z,2.42
2022-12-23T21:44:11.472Z,2.50
2022-12-23T21:46:37.950Z,2.50
2022-12-23T21:49:04.329Z,2.47
2022-12-23T21:51:39.618Z,2.42
2022-12-23T21:54:07.882Z,2.00
2022-12-23T21:56:34.483Z,2.63
2022-12-23T21:59:04.889Z,2.60
2022-12-23T22:01:31.668Z,2.40
2022-12-23T22:03:58.457Z,2.72
2022-12-23T22:06:29.330Z,2.50
2022-12-23T22:08:56.208Z,2.90
2022-12-23T22:11:24.659Z,2.38
2022-12-23T22:13:51.534Z,2.33
2022-12-23T22:16:19.397Z,2.40
2022-12-23T22:18:46.581Z,2.60
2022-12-23T22:21:14.807Z,2.65
2022-12-23T22:23:41.371Z,2.20
2022-12-23T22:26:08.244Z,2.25
2022-12-23T22:28:35.620Z,2.70
2022-12-23T22:31:03.389Z,2.20
2022-12-23T22:33:30.939Z,2.85
2022-12-23T22:35:57.333Z,2.65
2022-12-23T22:38:23.720Z,2.22
2022-12-23T22:40:50.751Z,2.00
2022-12-23T22:43:17.726Z,2.50
2022-12-23T22:45:44.262Z,2.00
2022-12-23T22:48:10.838Z,2.30
2022-12-23T22:50:37.439Z,2.50
2022-12-23T22:53:04.383Z,2.15
2022-12-23T22:55:30.765Z,2.42
2022-12-23T22:57:57.118Z,2.13
2022-12-23T23:00:23.615Z,2.30
2022-12-23T23:02:50.043Z,2.17
2022-12-23T23:05:16.505Z,2.60
2022-12-23T23:07:42.887Z,2.10
2022-12-23T23:10:09.885Z,2.22
2022-12-23T23:12:36.245Z,2.20
2022-12-23T23:15:02.641Z,2.10
2022-12-23T23:17:29.282Z,2.33
2022-12-23T23:19:55.654Z,2.30
2022-12-23T23:22:22.929Z,2.50
2022-12-23T23:24:49.643Z,2.53
2022-12-23T23:27:16.088Z,2.40
2022-12-23T23:29:42.486Z,2.30
2022-12-23T23:32:09.403Z,2.67
2022-12-23T23:34:36.898Z,2.35
2022-12-23T23:37:03.830Z,2.30
2022-12-23T23:39:30.186Z,2.20
2022-12-23T23:41:56.627Z,2.70
2022-12-23T23:44:22.961Z,2.40
2022-12-23T23:46:49.360Z,2.42
2022-12-23T23:49:15.749Z,2.60
2022-12-23T23:51:42.181Z,2.58
2022-12-23T23:54:08.958Z,2.88
2022-12-23T23:56:38.569Z,2.53
2022-12-23T23:59:05.965Z,2.80
